createdAt,value
2017-08-12T00:00:04.765Z,8.93
2017-08-12T00:02:33.253Z,10.47
2017-08-12T00:05:02.214Z,10.10
2017-08-12T00:07:30.627Z,10.37
2017-08-12T00:09:59.119Z,10.57
2017-08-12T00:12:27.382Z,9.87
2017-08-12T00:14:55.799Z,9.97
2017-08-12T00:17:24.417Z,10.97
2017-08-12T00:19:52.938Z,10.20
2017-08-12T00:22:21.226Z,11.63
2017-08-12T00:24:49.483Z,11.43
2017-08-12T00:27:17.763Z,11.70
2017-08-12T00:29:46.197Z,10.70
2017-08-12T00:32:14.982Z,11.87
2017-08-12T00:34:43.526Z,12.03
2017-08-12T00:37:11.909Z,13.00
2017-08-12T00:39:40.933Z,13.47
2017-08-12T00:42:09.628Z,12.93
2017-08-12T00:44:38.019Z,12.10
2017-08-12T00:47:06.733Z,13.03
2017-08-12T00:49:35.139Z,14.07
2017-08-12T00:52:03.383Z,13.90
2017-08-12T00:54:31.793Z,12.73
2017-08-12T00:57:00.162Z,11.77
2017-08-12T00:59:28.559Z,11.80
2017-08-12T01:01:56.961Z,9.90
2017-08-12T01:04:25.364Z,13.00
2017-08-12T01:06:53.705Z,11.43
2017-08-12T01:09:22.069Z,11.03
2017-08-12T01:11:50.404Z,11.60
2017-08-12T01:14:18.777Z,9.67
2017-08-12T01:16:47.131Z,9.00
2017-08-12T01:19:15.533Z,9.50
2017-08-12T01:21:45.065Z,10.00
2017-08-12T01:24:13.511Z,10.87
2017-08-12T01:26:41.972Z,11.20
2017-08-12T01:29:10.315Z,10.47
2017-08-12T01:31:38.600Z,9.97
2017-08-12T01:34:08.274Z,11.83
2017-08-12T01:36:36.692Z,8.37
2017-08-12T01:39:05.260Z,10.30
2017-08-12T01:41:34.013Z,9.60
2017-08-12T01:44:02.468Z,11.10
2017-08-12T01:46:30.903Z,10.43
2017-08-12T01:48:59.462Z,10.13
2017-08-12T01:51:27.752Z,9.27
2017-08-12T01:53:57.288Z,11.40
2017-08-12T01:56:27.064Z,12.80
2017-08-12T01:58:55.433Z,12.40
2017-08-12T02:01:23.793Z,12.43
2017-08-12T02:03:52.073Z,12.27
2017-08-12T02:06:20.737Z,11.27
2017-08-12T02:08:49.420Z,12.10
2017-08-12T02:11:17.702Z,12.40
2017-08-12T02:13:46.566Z,11.33
2017-08-12T02:16:15.413Z,13.03
2017-08-12T02:18:43.883Z,11.90
2017-08-12T02:21:12.654Z,12.97
2017-08-12T02:23:41.050Z,12.57
2017-08-12T02:26:09.327Z,13.43
2017-08-12T02:28:38.110Z,16.63
2017-08-12T02:31:06.372Z,13.77
2017-08-12T02:33:34.707Z,14.60
2017-08-12T02:36:03.229Z,13.47
2017-08-12T02:38:32.264Z,13.93
2017-08-12T02:41:00.564Z,12.97
2017-08-12T02:43:28.844Z,13.80
2017-08-12T02:45:57.188Z,14.00
2017-08-12T02:48:25.813Z,14.83
2017-08-12T02:50:54.129Z,15.27
2017-08-12T02:53:22.696Z,14.70
2017-08-12T02:55:51.460Z,14.80
2017-08-12T02:58:20.084Z,13.70
2017-08-12T03:00:48.732Z,15.17
2017-08-12T03:03:17.105Z,15.67
2017-08-12T03:05:45.362Z,14.50
2017-08-12T03:08:13.750Z,15.13
2017-08-12T03:10:42.282Z,14.60
2017-08-12T03:13:10.625Z,15.10
2017-08-12T03:15:39.308Z,15.30
2017-08-12T03:18:07.761Z,16.50
2017-08-12T03:20:36.204Z,15.50
2017-08-12T03:23:04.880Z,14.50
2017-08-12T03:25:33.203Z,15.17
2017-08-12T03:28:01.575Z,13.10
2017-08-12T03:30:30.105Z,13.50
2017-08-12T03:32:58.382Z,14.13
2017-08-12T03:35:26.669Z,13.20
2017-08-12T03:37:55.165Z,13.53
2017-08-12T03:40:24.040Z,12.77
2017-08-12T03:42:52.482Z,13.50
2017-08-12T03:45:20.812Z,13.30
2017-08-12T03:47:49.169Z,11.93
2017-08-12T03:50:17.444Z,13.23
2017-08-12T03:52:46.045Z,11.63
2017-08-12T03:55:15.227Z,10.57
2017-08-12T03:57:43.707Z,9.67
2017-08-12T04:00:12.016Z,11.80
2017-08-12T04:02:40.456Z,10.63
2017-08-12T04:05:09.207Z,11.17
2017-08-12T04:07:37.792Z,11.60
2017-08-12T04:10:06.055Z,13.07
2017-08-12T04:12:34.319Z,11.70
2017-08-12T04:15:02.892Z,11.97
2017-08-12T04:17:31.488Z,13.17
2017-08-12T04:19:59.844Z,12.27
2017-08-12T04:22:28.218Z,10.80
2017-08-12T04:24:56.539Z,12.13
2017-08-12T04:27:24.953Z,11.50
2017-08-12T04:29:53.232Z,10.90
2017-08-12T04:32:21.521Z,12.27
2017-08-12T04:34:50.491Z,11.70
2017-08-12T04:37:19.085Z,10.57
2017-08-12T04:39:47.466Z,11.37
2017-08-12T04:42:15.779Z,10.60
2017-08-12T04:44:44.076Z,12.40
2017-08-12T04:47:12.505Z,11.27
2017-08-12T04:49:41.169Z,10.70
2017-08-12T04:52:09.740Z,10.97
2017-08-12T04:54:38.009Z,8.83
2017-08-12T04:57:06.415Z,11.50
2017-08-12T04:59:34.858Z,9.03
2017-08-12T05:02:03.163Z,10.93
2017-08-12T05:04:31.956Z,11.10
2017-08-12T05:07:06.226Z,10.00
2017-08-12T05:09:40.396Z,11.13
2017-08-12T05:12:16.139Z,9.73
2017-08-12T05:14:50.316Z,9.80
2017-08-12T05:17:24.584Z,8.63
2017-08-12T05:19:58.881Z,9.70
2017-08-12T05:22:33.149Z,9.80
2017-08-12T05:25:07.258Z,9.87
2017-08-12T05:27:41.692Z,9.60
2017-08-12T05:30:15.957Z,8.40
2017-08-12T05:32:44.388Z,8.17
2017-08-12T05:35:13.416Z,8.87
2017-08-12T05:37:41.873Z,9.40
2017-08-12T05:40:10.324Z,8.80
2017-08-12T05:42:39.144Z,8.77
2017-08-12T05:45:07.559Z,9.87
2017-08-12T05:47:36.271Z,8.57
2017-08-12T05:50:05.159Z,10.43
2017-08-12T05:52:33.907Z,9.40
2017-08-12T05:55:02.332Z,8.97
2017-08-12T05:57:30.601Z,9.07
2017-08-12T05:59:58.859Z,11.37
2017-08-12T06:02:27.169Z,10.80
2017-08-12T06:04:55.489Z,9.90
2017-08-12T06:07:23.868Z,9.20
2017-08-12T06:09:53.054Z,9.40
2017-08-12T06:12:22.211Z,8.57
2017-08-12T06:14:50.503Z,8.60
2017-08-12T06:17:18.840Z,9.17
2017-08-12T06:19:47.095Z,9.13
2017-08-12T06:22:15.791Z,8.37
2017-08-12T06:24:44.062Z,8.40
2017-08-12T06:27:13.569Z,8.80
2017-08-12T06:29:42.177Z,8.30
2017-08-12T06:32:12.377Z,8.37
2017-08-12T06:34:40.929Z,7.80
2017-08-12T06:37:09.392Z,7.03
2017-08-12T06:39:37.701Z,8.87
2017-08-12T06:42:06.050Z,8.23
2017-08-12T06:44:34.765Z,8.47
2017-08-12T06:47:03.264Z,7.20
2017-08-12T06:49:32.005Z,6.97
2017-08-12T06:52:00.580Z,6.00
2017-08-12T06:54:29.017Z,6.40
2017-08-12T06:56:57.420Z,7.10
2017-08-12T06:59:25.794Z,5.90
2017-08-12T07:01:54.716Z,6.00
2017-08-12T07:04:23.425Z,5.73
2017-08-12T07:06:52.670Z,6.23
2017-08-12T07:09:21.051Z,5.40
2017-08-12T07:11:49.379Z,6.43
2017-08-12T07:14:17.696Z,5.90
2017-08-12T07:16:47.024Z,5.63
2017-08-12T07:19:15.467Z,4.63
2017-08-12T07:21:43.813Z,5.30
2017-08-12T07:24:13.095Z,5.30
2017-08-12T07:26:41.738Z,5.30
2017-08-12T07:29:10.233Z,5.40
2017-08-12T07:31:38.752Z,7.87
2017-08-12T07:34:07.185Z,8.43
2017-08-12T07:36:35.637Z,9.17
2017-08-12T07:39:05.180Z,9.57
2017-08-12T07:41:33.519Z,8.80
2017-08-12T07:44:01.785Z,10.60
2017-08-12T07:46:30.200Z,9.30
2017-08-12T07:48:58.468Z,9.50
2017-08-12T07:51:26.763Z,10.00
2017-08-12T07:53:55.259Z,9.30
2017-08-12T07:56:24.185Z,9.07
2017-08-12T07:58:53.415Z,9.03
2017-08-12T08:01:22.002Z,9.53
2017-08-12T08:03:50.766Z,7.63
2017-08-12T08:06:21.275Z,8.93
2017-08-12T08:08:49.796Z,9.23
2017-08-12T08:11:18.858Z,7.17
2017-08-12T08:13:48.306Z,7.17
2017-08-12T08:16:18.602Z,6.17
2017-08-12T08:18:47.442Z,7.07
2017-08-12T08:21:15.802Z,6.67
2017-08-12T08:23:45.178Z,7.40
2017-08-12T08:26:15.596Z,5.33
2017-08-12T08:28:44.634Z,5.70
2017-08-12T08:33:45.609Z,5.00
2017-08-12T08:36:13.916Z,4.43
2017-08-12T08:38:42.252Z,4.67
2017-08-12T08:43:43.848Z,2.93
2017-08-12T08:46:12.565Z,3.30
2017-08-12T08:48:44.739Z,3.93
2017-08-12T08:51:14.130Z,3.50
2017-08-12T08:56:16.146Z,3.73
2017-08-12T08:58:44.564Z,4.23
2017-08-12T09:01:13.483Z,3.67
2017-08-12T09:03:42.040Z,3.37
2017-08-12T09:06:10.707Z,4.43
2017-08-12T09:08:39.673Z,2.97
2017-08-12T09:11:08.300Z,3.13
2017-08-12T09:13:39.290Z,3.87
2017-08-12T09:18:41.714Z,2.90
2017-08-12T09:21:10.837Z,3.40
2017-08-12T09:26:12.012Z,2.47
2017-08-12T09:28:41.100Z,2.40
2017-08-12T09:31:09.610Z,2.50
2017-08-12T09:33:37.991Z,2.03
2017-08-12T09:36:06.341Z,2.40
2017-08-12T09:38:35.791Z,2.37
2017-08-12T09:41:04.555Z,1.77
2017-08-12T09:43:34.092Z,1.90
2017-08-12T09:46:02.844Z,2.07
2017-08-12T09:48:31.472Z,1.47
2017-08-12T09:51:00.677Z,1.20
2017-08-12T09:53:29.210Z,0.93
2017-08-12T09:55:57.925Z,2.17
2017-08-12T09:58:26.998Z,1.93
2017-08-12T10:00:55.300Z,1.33
2017-08-12T10:03:28.427Z,2.00
2017-08-12T10:05:57.317Z,2.00
2017-08-12T10:10:59.289Z,2.07
2017-08-12T10:13:28.537Z,2.60
2017-08-12T10:15:57.163Z,1.90
2017-08-12T10:20:59.021Z,2.20
2017-08-12T10:23:27.345Z,1.77
2017-08-12T10:25:55.827Z,2.00
2017-08-12T10:28:28.174Z,2.40
2017-08-12T10:30:57.237Z,2.50
2017-08-12T10:33:25.828Z,2.10
2017-08-12T10:35:54.140Z,2.23
2017-08-12T10:38:22.494Z,1.70
2017-08-12T10:40:51.279Z,2.00
2017-08-12T10:43:21.473Z,1.40
2017-08-12T10:45:50.418Z,1.50
2017-08-12T10:48:18.734Z,1.80
2017-08-12T10:50:50.872Z,1.37
2017-08-12T10:53:21.005Z,1.30
2017-08-12T10:55:49.926Z,1.00
2017-08-12T10:58:18.476Z,1.00
2017-08-12T11:00:47.008Z,1.13
2017-08-12T11:03:15.792Z,1.40
2017-08-12T11:08:17.839Z,1.67
2017-08-12T11:10:46.141Z,1.50
2017-08-12T11:13:14.966Z,1.37
2017-08-12T11:15:47.526Z,1.10
2017-08-12T11:18:16.544Z,1.40
2017-08-12T11:20:45.136Z,1.30
2017-08-12T11:23:14.027Z,1.50
2017-08-12T11:25:42.342Z,1.27
2017-08-12T11:28:10.667Z,1.67
2017-08-12T11:30:39.836Z,1.30
2017-08-12T11:33:08.846Z,2.10
2017-08-12T11:35:37.240Z,1.50
2017-08-12T11:38:09.606Z,1.30
2017-08-12T11:40:38.344Z,1.13
2017-08-12T11:43:07.667Z,1.07
2017-08-12T11:45:36.376Z,1.33
2017-08-12T11:50:37.462Z,1.67
2017-08-12T11:55:38.364Z,1.47
2017-08-12T11:58:06.624Z,1.10
2017-08-12T12:00:34.887Z,1.30
2017-08-12T12:03:03.217Z,1.00
2017-08-12T12:05:31.554Z,1.33
2017-08-12T12:08:01.378Z,1.70
2017-08-12T12:10:31.417Z,1.40
2017-08-12T12:12:59.962Z,1.50
2017-08-12T12:15:28.966Z,1.30
2017-08-12T12:17:57.387Z,1.30
2017-08-12T12:20:25.791Z,1.40
2017-08-12T12:22:54.491Z,1.83
2017-08-12T12:25:22.888Z,1.63
2017-08-12T12:27:52.354Z,1.50
2017-08-12T12:30:21.063Z,1.90
2017-08-12T12:32:49.529Z,1.90
2017-08-12T12:35:19.731Z,2.53
2017-08-12T12:37:48.189Z,1.43
2017-08-12T12:40:16.663Z,1.53
2017-08-12T12:42:44.962Z,1.53
2017-08-12T12:45:13.686Z,1.97
2017-08-12T12:47:42.027Z,1.40
2017-08-12T12:50:10.549Z,1.20
2017-08-12T12:52:39.147Z,1.30
2017-08-12T12:55:08.439Z,1.40
2017-08-12T12:57:37.850Z,1.40
2017-08-12T13:00:06.116Z,1.13
2017-08-12T13:02:34.529Z,1.30
2017-08-12T13:05:03.270Z,1.20
2017-08-12T13:07:32.437Z,1.70
2017-08-12T13:10:01.018Z,2.47
2017-08-12T13:12:33.194Z,1.83
2017-08-12T13:15:01.771Z,1.80
2017-08-12T13:17:30.282Z,2.23
2017-08-12T13:19:58.626Z,1.60
2017-08-12T13:22:27.590Z,1.90
2017-08-12T13:24:56.889Z,1.90
2017-08-12T13:27:25.565Z,2.50
2017-08-12T13:29:54.329Z,2.23
2017-08-12T13:32:22.972Z,2.40
2017-08-12T13:34:51.366Z,1.90
2017-08-12T13:37:20.580Z,2.43
2017-08-12T13:39:58.522Z,2.40
2017-08-12T13:42:31.054Z,3.40
2017-08-12T13:45:01.710Z,2.97
2017-08-12T13:47:33.980Z,3.37
2017-08-12T13:50:02.714Z,3.17
2017-08-12T13:52:31.080Z,3.17
2017-08-12T13:54:59.630Z,3.53
2017-08-12T13:57:27.947Z,3.43
2017-08-12T13:59:57.193Z,3.57
2017-08-12T14:02:26.173Z,2.73
2017-08-12T14:04:54.500Z,3.20
2017-08-12T14:07:22.972Z,3.07
2017-08-12T14:09:51.388Z,4.33
2017-08-12T14:12:20.056Z,3.97
2017-08-12T14:14:50.405Z,3.50
2017-08-12T14:17:18.933Z,3.73
2017-08-12T14:19:47.491Z,3.70
2017-08-12T14:22:16.179Z,3.87
2017-08-12T14:24:44.725Z,4.03
2017-08-12T14:27:13.320Z,3.40
2017-08-12T14:29:41.929Z,3.77
2017-08-12T14:32:14.493Z,3.67
2017-08-12T14:34:42.899Z,3.80
2017-08-12T14:37:11.988Z,3.30
2017-08-12T14:39:40.672Z,3.40
2017-08-12T14:42:09.072Z,4.50
2017-08-12T14:44:37.476Z,4.30
2017-08-12T14:47:06.526Z,4.50
2017-08-12T14:49:35.326Z,4.70
2017-08-12T14:52:03.692Z,3.57
2017-08-12T14:54:32.515Z,3.73
2017-08-12T14:57:00.985Z,3.73
2017-08-12T15:02:02.117Z,3.80
2017-08-12T15:07:02.866Z,4.20
2017-08-12T15:12:04.075Z,4.50
2017-08-12T15:14:32.488Z,3.70
2017-08-12T15:17:00.881Z,4.13
2017-08-12T15:19:29.198Z,4.00
2017-08-12T15:21:57.578Z,3.63
2017-08-12T15:24:29.864Z,4.50
2017-08-12T15:34:31.741Z,4.40
2017-08-12T15:37:00.538Z,4.57
2017-08-12T15:39:28.994Z,4.23
2017-08-12T15:41:57.310Z,4.30
2017-08-12T15:44:25.855Z,4.20
2017-08-12T15:46:54.130Z,4.50
2017-08-12T15:49:22.606Z,3.90
2017-08-12T15:51:51.020Z,3.77
2017-08-12T15:54:21.034Z,3.90
2017-08-12T15:56:51.781Z,4.00
2017-08-12T15:59:20.109Z,4.43
2017-08-12T16:01:49.725Z,4.37
2017-08-12T16:04:17.989Z,3.60
2017-08-12T16:06:48.936Z,3.87
2017-08-12T16:09:17.514Z,3.27
2017-08-12T16:11:45.779Z,4.20
2017-08-12T16:14:14.342Z,3.37
2017-08-12T16:16:42.701Z,3.50
2017-08-12T16:19:11.624Z,4.50
2017-08-12T16:21:40.400Z,3.90
2017-08-12T16:24:08.678Z,3.93
2017-08-12T16:26:36.972Z,3.63
2017-08-12T16:29:05.457Z,4.17
2017-08-12T16:31:33.781Z,3.93
2017-08-12T16:34:02.469Z,4.00
2017-08-12T16:36:30.728Z,4.47
2017-08-12T16:38:59.810Z,4.70
2017-08-12T16:41:28.649Z,4.90
2017-08-12T16:43:57.011Z,4.63
2017-08-12T16:46:25.532Z,4.60
2017-08-12T16:51:29.433Z,4.33
2017-08-12T16:53:58.048Z,4.40
2017-08-12T16:56:26.428Z,5.00
2017-08-12T16:58:54.853Z,4.40
2017-08-12T17:01:23.232Z,4.17
2017-08-12T17:03:51.565Z,4.33
2017-08-12T17:06:21.138Z,4.80
2017-08-12T17:08:50.562Z,3.70
2017-08-12T17:11:19.790Z,4.17
2017-08-12T17:13:48.168Z,4.53
2017-08-12T17:16:16.560Z,4.10
2017-08-12T17:18:45.058Z,4.70
2017-08-12T17:21:13.509Z,4.10
2017-08-12T17:23:41.871Z,4.03
2017-08-12T17:26:10.422Z,3.70
2017-08-12T17:28:39.060Z,4.10
2017-08-12T17:31:09.172Z,3.73
2017-08-12T17:33:37.480Z,3.97
2017-08-12T17:36:06.329Z,4.10
2017-08-12T17:38:34.956Z,4.30
2017-08-12T17:41:03.768Z,3.77
2017-08-12T17:43:32.288Z,3.60
2017-08-12T17:46:00.770Z,4.60
2017-08-12T17:48:29.375Z,4.50
2017-08-12T17:50:57.709Z,3.80
2017-08-12T17:53:26.180Z,4.70
2017-08-12T17:55:55.483Z,3.83
2017-08-12T17:58:24.063Z,5.27
2017-08-12T18:00:52.926Z,4.47
2017-08-12T18:03:21.798Z,3.90
2017-08-12T18:05:50.600Z,3.90
2017-08-12T18:08:18.917Z,3.80
2017-08-12T18:10:47.326Z,4.73
2017-08-12T18:13:15.948Z,5.17
2017-08-12T18:15:44.359Z,4.97
2017-08-12T18:18:13.404Z,5.10
2017-08-12T18:20:42.494Z,3.90
2017-08-12T18:23:11.305Z,3.97
2017-08-12T18:25:39.781Z,4.90
2017-08-12T18:28:09.022Z,4.97
2017-08-12T18:30:37.853Z,4.40
2017-08-12T18:33:06.262Z,4.63
2017-08-12T18:35:34.715Z,4.30
2017-08-12T18:38:03.399Z,4.60
2017-08-12T18:40:31.963Z,4.30
2017-08-12T18:45:32.765Z,4.20
2017-08-12T18:48:01.043Z,4.30
2017-08-12T18:50:29.526Z,5.83
2017-08-12T18:52:57.810Z,4.90
2017-08-12T18:55:26.121Z,4.77
2017-08-12T18:57:55.520Z,4.67
2017-08-12T19:00:24.495Z,5.13
2017-08-12T19:02:52.879Z,4.93
2017-08-12T19:05:21.223Z,5.33
2017-08-12T19:07:50.329Z,4.50
2017-08-12T19:10:19.304Z,4.70
2017-08-12T19:12:47.691Z,5.13
2017-08-12T19:17:48.822Z,4.17
2017-08-12T19:20:17.309Z,4.83
2017-08-12T19:22:45.572Z,4.57
2017-08-12T19:25:13.856Z,4.80
2017-08-12T19:27:42.129Z,5.07
2017-08-12T19:30:10.520Z,5.07
2017-08-12T19:32:38.783Z,5.20
2017-08-12T19:35:07.329Z,4.00
2017-08-12T19:37:35.728Z,6.90
2017-08-12T19:40:04.178Z,5.17
2017-08-12T19:42:32.459Z,5.10
2017-08-12T19:45:00.725Z,7.67
2017-08-12T19:47:29.490Z,5.73
2017-08-12T19:49:57.728Z,5.87
2017-08-12T19:52:26.549Z,4.93
2017-08-12T19:54:54.861Z,5.53
2017-08-12T19:57:23.599Z,6.30
2017-08-12T19:59:52.275Z,5.53
2017-08-12T20:02:20.696Z,5.80
2017-08-12T20:04:49.263Z,5.90
2017-08-12T20:07:17.647Z,5.37
2017-08-12T20:09:45.933Z,6.40
2017-08-12T20:12:14.176Z,5.30
2017-08-12T20:14:44.425Z,6.10
2017-08-12T20:17:16.570Z,6.20
2017-08-12T20:19:44.914Z,5.53
2017-08-12T20:22:13.196Z,6.00
2017-08-12T20:24:41.464Z,4.63
2017-08-12T20:27:09.748Z,5.67
2017-08-12T20:29:38.258Z,4.97
2017-08-12T20:32:06.711Z,5.37
2017-08-12T20:34:35.294Z,4.83
2017-08-12T20:37:03.568Z,5.80
2017-08-12T20:39:32.533Z,6.27
2017-08-12T20:42:01.168Z,5.80
2017-08-12T20:44:29.460Z,5.10
2017-08-12T20:46:57.844Z,6.63
2017-08-12T20:49:26.121Z,6.10
2017-08-12T20:51:54.418Z,6.73
2017-08-12T20:54:22.666Z,5.83
2017-08-12T20:56:51.096Z,5.70
2017-08-12T20:59:19.733Z,7.30
2017-08-12T21:01:48.042Z,6.10
2017-08-12T21:04:16.316Z,6.13
2017-08-12T21:06:45.118Z,6.83
2017-08-12T21:09:14.775Z,6.10
2017-08-12T21:11:43.064Z,7.00
2017-08-12T21:14:11.778Z,6.33
2017-08-12T21:16:40.073Z,6.47
2017-08-12T21:19:08.329Z,6.40
2017-08-12T21:21:36.741Z,6.57
2017-08-12T21:24:05.053Z,6.70
2017-08-12T21:29:06.255Z,7.00
2017-08-12T21:31:34.588Z,6.93
2017-08-12T21:34:02.864Z,8.23
2017-08-12T21:36:31.196Z,6.77
2017-08-12T21:38:59.533Z,7.10
2017-08-12T21:41:27.856Z,7.57
2017-08-12T21:43:56.324Z,6.77
2017-08-12T21:46:25.051Z,8.20
2017-08-12T21:48:53.283Z,8.37
2017-08-12T21:51:21.594Z,8.37
2017-08-12T21:53:49.913Z,8.70
2017-08-12T21:56:18.197Z,7.10
2017-08-12T21:58:46.529Z,7.87
2017-08-12T22:01:14.791Z,7.60
2017-08-12T22:03:43.511Z,7.17
2017-08-12T22:06:12.356Z,7.63
2017-08-12T22:08:40.726Z,7.70
2017-08-12T22:11:09.287Z,7.53
2017-08-12T22:13:37.719Z,6.90
2017-08-12T22:16:05.963Z,6.23
2017-08-12T22:18:34.448Z,8.83
2017-08-12T22:21:03.520Z,7.43
2017-08-12T22:23:31.836Z,7.60
2017-08-12T22:26:00.210Z,7.50
2017-08-12T22:28:28.948Z,7.43
2017-08-12T22:30:57.206Z,6.50
2017-08-12T22:33:25.498Z,6.80
2017-08-12T22:35:54.030Z,7.33
2017-08-12T22:38:22.413Z,7.40
2017-08-12T22:40:50.889Z,6.90
2017-08-12T22:43:19.597Z,8.07
2017-08-12T22:45:48.253Z,7.43
2017-08-12T22:48:17.541Z,6.97
2017-08-12T22:50:46.516Z,6.53
2017-08-12T22:53:15.460Z,7.60
2017-08-12T22:55:44.517Z,7.23
2017-08-12T22:58:13.169Z,6.90
2017-08-12T23:00:41.739Z,7.50
2017-08-12T23:03:10.033Z,6.20
2017-08-12T23:05:38.275Z,5.60
2017-08-12T23:08:06.539Z,6.60
2017-08-12T23:10:34.817Z,6.23
2017-08-12T23:13:03.544Z,6.97
2017-08-12T23:15:31.980Z,6.50
2017-08-12T23:18:00.314Z,6.33
2017-08-12T23:20:29.676Z,6.57
2017-08-12T23:22:58.091Z,6.27
2017-08-12T23:25:26.454Z,6.50
2017-08-12T23:27:54.806Z,6.80
2017-08-12T23:30:23.050Z,5.60
2017-08-12T23:32:51.407Z,6.47
2017-08-12T23:35:19.719Z,5.97
2017-08-12T23:37:48.418Z,6.77
2017-08-12T23:40:16.756Z,5.80
2017-08-12T23:42:45.590Z,6.30
2017-08-12T23:45:14.160Z,5.93
2017-08-12T23:47:42.553Z,5.20
2017-08-12T23:50:11.283Z,5.57
2017-08-12T23:52:39.696Z,4.73
2017-08-12T23:55:07.992Z,6.67
2017-08-12T23:57:36.322Z,5.70
